createdAt,value
2022-12-25T00:00:58.905Z,33.78
2022-12-25T00:02:03.640Z,23.75
2022-12-25T00:03:08.865Z,24.92
2022-12-25T00:04:11.001Z,35.47
2022-12-25T00:05:15.599Z,23.45
2022-12-25T00:06:17.625Z,26.75
2022-12-25T00:07:22.146Z,26.23
2022-12-25T00:08:24.099Z,28.33
2022-12-25T00:09:28.725Z,30.80
2022-12-25T00:10:30.631Z,26.25
2022-12-25T00:11:35.121Z,27.23
2022-12-25T00:12:37.111Z,24.33
2022-12-25T00:13:42.113Z,42.38
2022-12-25T00:14:44.182Z,23.67
2022-12-25T00:15:48.862Z,22.50
2022-12-25T00:16:53.430Z,23.40
2022-12-25T00:17:57.958Z,17.10
2022-12-25T00:19:02.842Z,20.70
2022-12-25T00:20:06.106Z,18.17
2022-12-25T00:21:10.828Z,22.75
2022-12-25T00:22:12.906Z,18.77
2022-12-25T00:23:17.401Z,20.23
2022-12-25T00:24:20.083Z,17.75
2022-12-25T00:25:24.712Z,24.27
2022-12-25T00:26:27.857Z,24.52
2022-12-25T00:27:34.574Z,21.67
2022-12-25T00:28:36.812Z,18.25
2022-12-25T00:29:41.788Z,21.92
2022-12-25T00:30:43.781Z,19.08
2022-12-25T00:31:48.569Z,17.33
2022-12-25T00:32:50.698Z,17.70
2022-12-25T00:33:57.930Z,19.48
2022-12-25T00:34:59.920Z,18.63
2022-12-25T00:36:06.275Z,19.40
2022-12-25T00:37:08.522Z,17.90
2022-12-25T00:38:13.139Z,15.63
2022-12-25T00:39:15.104Z,20.50
2022-12-25T00:40:19.662Z,22.73
2022-12-25T00:41:38.290Z,26.10
2022-12-25T00:42:42.925Z,20.92
2022-12-25T00:43:44.994Z,19.33
2022-12-25T00:44:50.032Z,23.55
2022-12-25T00:45:56.472Z,20.48
2022-12-25T00:47:01.279Z,22.73
2022-12-25T00:48:03.589Z,17.52
2022-12-25T00:49:10.832Z,10.93
2022-12-25T00:50:12.832Z,21.27
2022-12-25T00:51:17.320Z,21.58
2022-12-25T00:52:19.235Z,20.67
2022-12-25T00:53:24.134Z,24.38
2022-12-25T00:54:26.246Z,18.55
2022-12-25T00:55:30.853Z,18.58
2022-12-25T00:56:33.057Z,18.77
2022-12-25T00:57:37.740Z,16.52
2022-12-25T00:58:39.650Z,16.20
2022-12-25T00:59:44.224Z,10.55
2022-12-25T01:00:47.679Z,16.85
2022-12-25T01:01:52.542Z,16.23
2022-12-25T01:02:54.833Z,17.17
2022-12-25T01:03:59.848Z,15.90
2022-12-25T01:05:08.396Z,16.02
2022-12-25T01:06:13.693Z,17.67
2022-12-25T01:07:19.623Z,14.52
2022-12-25T01:08:21.634Z,21.52
2022-12-25T01:09:38.641Z,12.02
2022-12-25T01:10:44.474Z,12.10
2022-12-25T01:11:46.609Z,24.70
2022-12-25T01:12:54.772Z,18.48
2022-12-25T01:14:08.663Z,7.30
2022-12-25T01:15:14.995Z,25.27
2022-12-25T01:16:16.959Z,23.58
2022-12-25T01:17:21.543Z,26.80
2022-12-25T01:18:25.184Z,32.00
2022-12-25T01:19:29.795Z,26.60
2022-12-25T01:20:35.614Z,28.67
2022-12-25T01:21:40.588Z,18.05
2022-12-25T01:22:42.680Z,21.00
2022-12-25T01:23:47.714Z,17.83
2022-12-25T01:24:49.899Z,11.73
2022-12-25T01:25:54.406Z,16.55
2022-12-25T01:26:56.421Z,15.68
2022-12-25T01:28:00.965Z,15.85
2022-12-25T01:29:03.327Z,23.23
2022-12-25T01:30:09.589Z,17.17
2022-12-25T01:31:15.027Z,15.15
2022-12-25T01:32:19.570Z,17.20
2022-12-25T01:33:24.164Z,19.70
2022-12-25T01:34:26.315Z,15.93
2022-12-25T01:35:30.963Z,15.43
2022-12-25T01:36:35.539Z,16.23
2022-12-25T01:37:40.075Z,15.05
2022-12-25T01:38:42.553Z,13.98
2022-12-25T01:39:47.087Z,11.55
2022-12-25T01:40:49.039Z,14.15
2022-12-25T01:41:53.790Z,14.18
2022-12-25T01:42:56.022Z,6.25
2022-12-25T01:44:07.999Z,19.45
2022-12-25T01:45:35.187Z,15.25
2022-12-25T01:46:39.733Z,17.25
2022-12-25T01:47:41.720Z,17.58
2022-12-25T01:48:46.470Z,17.67
2022-12-25T01:49:51.091Z,18.02
2022-12-25T01:50:59.850Z,38.08
2022-12-25T01:52:10.816Z,12.32
2022-12-25T01:53:15.955Z,16.42
2022-12-25T01:54:21.951Z,37.70
2022-12-25T01:55:27.034Z,15.63
2022-12-25T01:56:30.232Z,15.48
2022-12-25T01:57:37.436Z,16.45
2022-12-25T01:58:39.799Z,14.95
2022-12-25T01:59:44.676Z,10.30
2022-12-25T02:00:46.774Z,15.63
2022-12-25T02:01:52.082Z,9.57
2022-12-25T02:02:54.452Z,14.15
2022-12-25T02:04:05.871Z,16.10
2022-12-25T02:05:12.329Z,26.83
2022-12-25T02:06:17.033Z,17.55
2022-12-25T02:07:23.940Z,18.30
2022-12-25T02:08:28.855Z,25.35
2022-12-25T02:09:30.787Z,14.65
2022-12-25T02:10:35.450Z,18.80
2022-12-25T02:11:54.786Z,16.23
2022-12-25T02:12:59.509Z,15.18
2022-12-25T02:14:01.953Z,16.48
2022-12-25T02:15:10.934Z,10.88
2022-12-25T02:16:21.093Z,8.50
2022-12-25T02:17:33.851Z,16.95
2022-12-25T02:18:41.825Z,18.85
2022-12-25T02:20:06.199Z,12.57
2022-12-25T02:21:32.566Z,11.27
2022-12-25T02:22:47.739Z,17.08
2022-12-25T02:24:16.213Z,17.65
2022-12-25T02:25:38.171Z,52.45
2022-12-25T02:28:14.309Z,15.68
2022-12-25T02:29:24.341Z,12.52
2022-12-25T02:30:28.651Z,15.55
2022-12-25T02:31:41.566Z,13.07
2022-12-25T02:32:50.359Z,17.35
2022-12-25T02:34:08.022Z,18.55
2022-12-25T02:35:15.437Z,15.60
2022-12-25T02:36:26.868Z,14.18
2022-12-25T02:37:35.667Z,11.45
2022-12-25T02:39:04.272Z,12.55
2022-12-25T02:40:40.574Z,4.57
2022-12-25T02:41:48.140Z,13.07
2022-12-25T02:43:09.736Z,13.00
2022-12-25T02:44:33.703Z,13.77
2022-12-25T02:45:56.497Z,18.65
2022-12-25T02:47:13.889Z,22.05
2022-12-25T02:48:38.479Z,11.07
2022-12-25T02:49:58.038Z,14.68
2022-12-25T02:51:20.177Z,5.25
2022-12-25T02:52:39.278Z,14.90
2022-12-25T02:53:57.918Z,13.80
2022-12-25T02:55:18.434Z,14.15
2022-12-25T02:56:37.363Z,11.82
2022-12-25T02:58:01.407Z,13.90
2022-12-25T02:59:19.862Z,12.02
2022-12-25T03:00:39.783Z,13.45
2022-12-25T03:01:58.556Z,11.68
2022-12-25T03:03:27.017Z,12.38
2022-12-25T03:04:45.956Z,24.13
2022-12-25T03:06:04.243Z,11.32
2022-12-25T03:07:12.816Z,13.15
2022-12-25T03:08:22.969Z,15.18
2022-12-25T03:09:44.214Z,12.73
2022-12-25T03:11:11.057Z,25.90
2022-12-25T03:12:20.970Z,6.22
2022-12-25T03:13:27.821Z,14.77
2022-12-25T03:14:44.959Z,15.15
2022-12-25T03:16:05.567Z,22.13
2022-12-25T03:17:10.280Z,14.90
2022-12-25T03:18:16.239Z,18.20
2022-12-25T03:19:34.517Z,15.15
2022-12-25T03:20:53.288Z,17.13
2022-12-25T03:22:11.466Z,13.45
2022-12-25T03:23:30.525Z,17.48
2022-12-25T03:24:47.626Z,17.98
2022-12-25T03:26:04.453Z,13.90
2022-12-25T03:27:09.183Z,14.95
2022-12-25T03:28:11.174Z,6.20
2022-12-25T03:29:36.439Z,4.75
2022-12-25T03:30:59.931Z,15.75
2022-12-25T03:32:15.550Z,14.63
2022-12-25T03:33:44.437Z,14.98
2022-12-25T03:35:08.228Z,13.63
2022-12-25T03:36:19.705Z,10.75
2022-12-25T03:37:48.790Z,15.02
2022-12-25T03:39:16.075Z,15.75
2022-12-25T03:40:41.869Z,15.25
2022-12-25T03:42:03.233Z,12.23
2022-12-25T03:43:30.256Z,12.05
2022-12-25T03:44:54.823Z,15.02
2022-12-25T03:46:17.848Z,12.30
2022-12-25T03:47:43.365Z,11.68
2022-12-25T03:49:06.451Z,15.23
2022-12-25T03:50:31.962Z,15.45
2022-12-25T03:51:51.636Z,15.38
2022-12-25T03:53:10.930Z,16.50
2022-12-25T03:54:30.942Z,15.65
2022-12-25T03:55:54.856Z,24.77
2022-12-25T03:57:12.868Z,18.40
2022-12-25T03:58:34.003Z,17.67
2022-12-25T03:59:51.066Z,32.60
2022-12-25T04:01:08.588Z,15.07
2022-12-25T04:02:25.793Z,19.48
2022-12-25T04:03:45.591Z,22.60
2022-12-25T04:05:02.642Z,13.57
2022-12-25T04:06:20.074Z,18.13
2022-12-25T04:07:37.137Z,15.80
2022-12-25T04:08:54.211Z,23.83
2022-12-25T04:10:11.217Z,12.52
2022-12-25T04:11:28.284Z,10.48
2022-12-25T04:12:45.331Z,14.10
2022-12-25T04:14:02.325Z,19.02
2022-12-25T04:15:19.789Z,10.10
2022-12-25T04:16:36.747Z,15.77
2022-12-25T04:17:53.798Z,16.92
2022-12-25T04:19:13.379Z,16.45
2022-12-25T04:20:30.981Z,13.40
2022-12-25T04:21:48.081Z,14.95
2022-12-25T04:23:05.069Z,14.95
2022-12-25T04:24:22.817Z,13.90
2022-12-25T04:25:39.802Z,16.67
2022-12-25T04:26:56.814Z,18.48
2022-12-25T04:28:16.475Z,14.77
2022-12-25T04:29:33.547Z,16.58
2022-12-25T04:30:50.609Z,18.60
2022-12-25T04:32:07.680Z,13.93
2022-12-25T04:33:24.809Z,12.40
2022-12-25T04:34:44.955Z,13.77
2022-12-25T04:36:02.940Z,23.20
2022-12-25T04:37:07.592Z,18.13
2022-12-25T04:38:09.688Z,14.93
2022-12-25T04:39:14.553Z,18.00
2022-12-25T04:40:16.896Z,13.75
2022-12-25T04:41:21.420Z,37.53
2022-12-25T04:42:23.408Z,10.20
2022-12-25T04:43:28.088Z,9.98
2022-12-25T04:44:30.062Z,22.35
2022-12-25T04:45:34.601Z,30.85
2022-12-25T04:46:36.643Z,17.08
2022-12-25T04:47:41.307Z,16.73
2022-12-25T04:48:43.494Z,17.10
2022-12-25T04:49:50.611Z,14.27
2022-12-25T04:50:53.059Z,15.82
2022-12-25T04:51:57.617Z,14.77
2022-12-25T04:52:59.599Z,14.52
2022-12-25T04:54:04.301Z,15.32
2022-12-25T04:55:07.466Z,14.13
2022-12-25T04:56:12.126Z,6.63
2022-12-25T04:57:14.213Z,14.23
2022-12-25T04:58:18.826Z,16.27
2022-12-25T04:59:20.772Z,15.65
2022-12-25T05:00:25.499Z,16.48
2022-12-25T05:01:30.933Z,7.20
2022-12-25T05:02:36.115Z,23.13
2022-12-25T05:03:40.050Z,19.98
2022-12-25T05:04:44.804Z,23.38
2022-12-25T05:05:49.387Z,19.27
2022-12-25T05:06:55.088Z,15.40
2022-12-25T05:07:57.755Z,25.30
2022-12-25T05:09:02.336Z,15.10
2022-12-25T05:10:04.834Z,14.48
2022-12-25T05:11:11.246Z,21.42
2022-12-25T05:12:13.749Z,16.30
2022-12-25T05:13:18.286Z,18.08
2022-12-25T05:14:20.287Z,22.48
2022-12-25T05:15:24.984Z,15.20
2022-12-25T05:16:27.226Z,15.70
2022-12-25T05:17:32.385Z,22.08
2022-12-25T05:18:34.604Z,18.85
2022-12-25T05:19:39.150Z,21.58
2022-12-25T05:20:41.168Z,19.73
2022-12-25T05:21:48.302Z,18.40
2022-12-25T05:22:50.312Z,17.65
2022-12-25T05:23:55.910Z,15.38
2022-12-25T05:24:57.922Z,15.75
2022-12-25T05:26:06.053Z,15.02
2022-12-25T05:27:08.015Z,16.00
2022-12-25T05:28:12.852Z,16.63
2022-12-25T05:29:14.835Z,16.40
2022-12-25T05:30:19.592Z,30.88
2022-12-25T05:31:22.388Z,9.93
2022-12-25T05:32:27.085Z,14.45
2022-12-25T05:33:29.042Z,21.17
2022-12-25T05:34:33.644Z,17.00
2022-12-25T05:35:36.878Z,14.30
2022-12-25T05:36:41.594Z,19.95
2022-12-25T05:37:46.302Z,11.75
2022-12-25T05:38:51.095Z,17.80
2022-12-25T05:39:53.039Z,16.17
2022-12-25T05:40:57.596Z,16.30
2022-12-25T05:42:00.553Z,10.55
2022-12-25T05:43:05.169Z,11.15
2022-12-25T05:44:07.238Z,14.13
2022-12-25T05:45:13.240Z,14.63
2022-12-25T05:46:15.328Z,15.23
2022-12-25T05:47:20.031Z,14.77
2022-12-25T05:48:21.991Z,18.85
2022-12-25T05:49:26.785Z,15.80
2022-12-25T05:50:29.006Z,23.08
2022-12-25T05:51:33.575Z,17.98
2022-12-25T05:52:35.951Z,18.20
2022-12-25T05:53:44.820Z,23.08
2022-12-25T05:54:46.799Z,19.40
2022-12-25T05:55:51.370Z,20.50
2022-12-25T05:56:53.400Z,19.10
2022-12-25T05:57:58.014Z,18.13
2022-12-25T05:59:00.145Z,19.55
2022-12-25T06:00:04.745Z,29.55
2022-12-25T06:01:12.052Z,21.08
2022-12-25T06:02:16.688Z,25.08
2022-12-25T06:03:18.818Z,35.70
2022-12-25T06:04:23.471Z,29.92
2022-12-25T06:05:25.604Z,27.10
2022-12-25T06:06:30.487Z,29.35
2022-12-25T06:07:32.525Z,26.60
2022-12-25T06:08:37.273Z,24.38
2022-12-25T06:09:42.728Z,24.98
2022-12-25T06:10:47.418Z,20.00
2022-12-25T06:11:49.399Z,22.30
2022-12-25T06:12:53.977Z,17.73
2022-12-25T06:13:56.937Z,17.92
2022-12-25T06:15:01.567Z,16.85
2022-12-25T06:16:05.388Z,19.63
2022-12-25T06:17:10.053Z,16.52
2022-12-25T06:18:12.037Z,16.42
2022-12-25T06:19:16.659Z,34.00
2022-12-25T06:20:18.792Z,15.35
2022-12-25T06:21:23.321Z,11.45
2022-12-25T06:22:28.846Z,20.13
2022-12-25T06:23:33.780Z,16.55
2022-12-25T06:24:36.112Z,12.85
2022-12-25T06:25:44.010Z,29.95
2022-12-25T06:26:46.091Z,18.20
2022-12-25T06:27:50.669Z,17.98
2022-12-25T06:28:53.611Z,14.93
2022-12-25T06:29:58.786Z,16.65
2022-12-25T06:31:06.619Z,7.85
2022-12-25T06:32:11.200Z,14.02
2022-12-25T06:33:13.519Z,16.73
2022-12-25T06:34:18.675Z,15.10
2022-12-25T06:35:20.756Z,14.20
2022-12-25T06:36:27.458Z,9.82
2022-12-25T06:37:29.489Z,15.90
2022-12-25T06:38:34.151Z,17.15
2022-12-25T06:39:38.865Z,18.45
2022-12-25T06:40:43.457Z,16.90
2022-12-25T06:41:48.011Z,22.52
2022-12-25T06:42:49.969Z,14.32
2022-12-25T06:43:56.318Z,19.60
2022-12-25T06:44:58.274Z,16.38
2022-12-25T06:46:06.501Z,16.48
2022-12-25T06:47:08.494Z,12.80
2022-12-25T06:48:13.247Z,16.23
2022-12-25T06:49:15.207Z,17.08
2022-12-25T06:50:20.008Z,14.57
2022-12-25T06:51:23.988Z,16.75
2022-12-25T06:52:28.607Z,13.45
2022-12-25T06:53:37.143Z,18.05
2022-12-25T06:54:44.611Z,25.42
2022-12-25T06:55:49.187Z,19.52
2022-12-25T06:56:53.816Z,24.25
2022-12-25T06:57:55.704Z,15.75
2022-12-25T06:59:01.866Z,56.92
2022-12-25T07:00:05.104Z,14.10
2022-12-25T07:01:15.465Z,22.52
2022-12-25T07:02:21.972Z,20.17
2022-12-25T07:03:29.274Z,23.08
2022-12-25T07:04:35.842Z,18.90
2022-12-25T07:05:40.407Z,15.25
2022-12-25T07:06:42.509Z,40.40
2022-12-25T07:07:47.097Z,18.48
2022-12-25T07:08:49.062Z,18.55
2022-12-25T07:09:53.640Z,52.10
2022-12-25T07:10:58.390Z,18.08
2022-12-25T07:12:07.232Z,18.08
2022-12-25T07:13:09.271Z,20.52
2022-12-25T07:14:23.723Z,20.15
2022-12-25T07:15:29.131Z,19.38
2022-12-25T07:16:31.326Z,18.45
2022-12-25T07:17:38.438Z,26.35
2022-12-25T07:18:41.286Z,22.90
2022-12-25T07:19:45.981Z,26.52
2022-12-25T07:20:48.016Z,15.15
2022-12-25T07:21:52.588Z,18.20
2022-12-25T07:22:54.607Z,26.23
2022-12-25T07:23:59.249Z,22.80
2022-12-25T07:25:01.224Z,26.85
2022-12-25T07:26:09.209Z,20.52
2022-12-25T07:27:11.134Z,18.50
2022-12-25T07:28:15.663Z,19.48
2022-12-25T07:29:17.676Z,21.55
2022-12-25T07:30:22.337Z,20.13
2022-12-25T07:31:24.590Z,19.65
2022-12-25T07:32:32.548Z,29.17
2022-12-25T07:33:34.589Z,21.42
2022-12-25T07:34:39.404Z,22.17
2022-12-25T07:35:41.398Z,23.27
2022-12-25T07:36:46.306Z,29.15
2022-12-25T07:37:48.259Z,23.63
2022-12-25T07:38:53.144Z,20.15
2022-12-25T07:39:55.153Z,22.23
2022-12-25T07:40:59.985Z,16.00
2022-12-25T07:42:04.746Z,12.50
2022-12-25T07:43:09.363Z,17.90
2022-12-25T07:44:11.428Z,14.60
2022-12-25T07:45:16.083Z,12.73
2022-12-25T07:46:18.807Z,15.68
2022-12-25T07:47:23.383Z,14.32
2022-12-25T07:48:25.988Z,16.35
2022-12-25T07:49:30.609Z,9.77
2022-12-25T07:50:32.772Z,12.02
2022-12-25T07:51:37.485Z,14.07
2022-12-25T07:52:43.476Z,15.20
2022-12-25T07:53:49.123Z,13.38
2022-12-25T07:54:51.567Z,15.48
2022-12-25T07:56:00.709Z,19.23
2022-12-25T07:57:07.882Z,11.68
2022-12-25T07:58:09.822Z,12.20
2022-12-25T07:59:14.424Z,14.52
2022-12-25T08:00:17.979Z,15.10
2022-12-25T08:01:25.631Z,9.77
2022-12-25T08:02:29.193Z,12.82
2022-12-25T08:03:34.334Z,17.30
2022-12-25T08:04:39.048Z,12.05
2022-12-25T08:05:40.994Z,11.23
2022-12-25T08:06:45.593Z,10.35
2022-12-25T08:07:52.410Z,17.38
2022-12-25T08:09:00.871Z,14.27
2022-12-25T08:10:03.309Z,13.85
2022-12-25T08:11:09.836Z,12.15
2022-12-25T08:12:14.652Z,10.73
2022-12-25T08:13:19.197Z,13.52
2022-12-25T08:14:21.508Z,11.98
2022-12-25T08:15:26.072Z,13.80
2022-12-25T08:16:30.801Z,9.68
2022-12-25T08:17:35.213Z,14.00
2022-12-25T08:18:41.364Z,13.23
2022-12-25T08:19:43.330Z,19.75
2022-12-25T08:20:47.850Z,19.42
2022-12-25T08:21:49.841Z,16.95
2022-12-25T08:22:54.421Z,17.17
2022-12-25T08:23:56.462Z,19.27
2022-12-25T08:25:01.024Z,16.15
2022-12-25T08:26:05.736Z,16.52
2022-12-25T08:27:10.731Z,15.48
2022-12-25T08:28:15.337Z,16.27
2022-12-25T08:29:20.008Z,19.92
2022-12-25T08:30:22.038Z,16.77
2022-12-25T08:31:29.117Z,14.88
2022-12-25T08:32:33.684Z,11.82
2022-12-25T08:33:39.005Z,16.73
2022-12-25T08:34:41.013Z,15.68
2022-12-25T08:35:45.646Z,17.38
2022-12-25T08:36:47.766Z,17.83
2022-12-25T08:37:52.458Z,15.48
2022-12-25T08:39:02.154Z,15.45
2022-12-25T08:40:09.627Z,12.18
2022-12-25T08:41:12.516Z,13.18
2022-12-25T08:42:17.559Z,17.38
2022-12-25T08:43:22.087Z,15.10
2022-12-25T08:44:26.730Z,13.43
2022-12-25T08:45:34.797Z,14.85
2022-12-25T08:46:40.630Z,12.35
2022-12-25T08:47:42.794Z,13.60
2022-12-25T08:48:48.973Z,17.23
2022-12-25T08:49:50.956Z,20.27
2022-12-25T08:50:56.348Z,19.13
2022-12-25T08:51:58.721Z,22.25
2022-12-25T08:53:03.321Z,14.55
2022-12-25T08:54:08.051Z,13.93
2022-12-25T08:55:10.342Z,15.65
2022-12-25T08:56:16.493Z,18.95
2022-12-25T08:57:18.570Z,14.95
2022-12-25T08:58:25.748Z,20.55
2022-12-25T08:59:27.746Z,17.42
2022-12-25T09:00:32.462Z,15.05
2022-12-25T09:01:34.622Z,19.48
2022-12-25T09:02:39.435Z,14.23
2022-12-25T09:03:42.065Z,16.88
2022-12-25T09:04:48.096Z,15.85
2022-12-25T09:05:50.058Z,16.08
2022-12-25T09:06:54.694Z,16.75
2022-12-25T09:07:56.630Z,18.70
2022-12-25T09:09:01.455Z,18.75
2022-12-25T09:10:03.742Z,16.88
2022-12-25T09:11:10.718Z,15.52
2022-12-25T09:12:12.763Z,15.30
2022-12-25T09:13:17.750Z,17.65
2022-12-25T09:14:22.295Z,17.45
2022-12-25T09:15:26.867Z,16.52
2022-12-25T09:16:28.873Z,16.85
2022-12-25T09:17:33.725Z,16.08
2022-12-25T09:18:36.248Z,18.60
2022-12-25T09:19:40.837Z,14.50
2022-12-25T09:20:42.740Z,16.48
2022-12-25T09:21:47.305Z,17.65
2022-12-25T09:22:49.373Z,15.07
2022-12-25T09:23:53.924Z,13.90
2022-12-25T09:24:55.953Z,19.80
2022-12-25T09:26:01.248Z,18.27
2022-12-25T09:27:03.474Z,21.33
2022-12-25T09:28:08.121Z,17.90
2022-12-25T09:29:10.093Z,17.70
2022-12-25T09:30:17.704Z,21.23
2022-12-25T09:31:23.276Z,18.85
2022-12-25T09:32:25.282Z,11.23
2022-12-25T09:33:30.082Z,16.15
2022-12-25T09:34:32.079Z,16.77
2022-12-25T09:35:37.029Z,13.68
2022-12-25T09:36:39.015Z,16.48
2022-12-25T09:37:44.377Z,16.80
2022-12-25T09:38:46.315Z,13.75
2022-12-25T09:39:51.039Z,22.58
2022-12-25T09:40:59.857Z,20.58
2022-12-25T09:42:10.398Z,20.10
2022-12-25T09:43:17.649Z,17.42
2022-12-25T09:44:25.916Z,17.08
2022-12-25T09:45:38.036Z,19.88
2022-12-25T09:46:47.541Z,16.00
2022-12-25T09:47:57.847Z,22.48
2022-12-25T09:49:05.514Z,18.92
2022-12-25T09:50:15.162Z,13.45
2022-12-25T09:51:18.653Z,16.92
2022-12-25T09:52:28.818Z,21.60
2022-12-25T09:53:38.008Z,21.67
2022-12-25T09:54:52.556Z,16.27
2022-12-25T09:56:04.198Z,16.00
2022-12-25T09:58:13.131Z,33.47
2022-12-25T09:59:25.677Z,26.40
2022-12-25T10:00:36.362Z,16.95
2022-12-25T10:01:58.937Z,39.25
2022-12-25T10:03:15.822Z,116.82
2022-12-25T10:04:39.080Z,13.30
2022-12-25T10:06:13.302Z,23.45
2022-12-25T10:07:26.408Z,15.70
2022-12-25T10:08:50.634Z,13.90
2022-12-25T10:10:05.959Z,20.20
2022-12-25T10:11:22.122Z,15.98
2022-12-25T10:12:41.521Z,18.55
2022-12-25T10:14:00.601Z,5.43
2022-12-25T10:15:17.136Z,12.85
2022-12-25T10:16:32.967Z,14.45
2022-12-25T10:17:50.329Z,13.30
2022-12-25T10:19:03.482Z,17.50
2022-12-25T10:20:18.658Z,6.10
2022-12-25T10:21:22.584Z,15.38
2022-12-25T10:22:34.490Z,9.10
2022-12-25T10:23:40.744Z,13.43
2022-12-25T10:24:50.252Z,11.43
2022-12-25T10:25:53.885Z,16.42
2022-12-25T10:26:59.911Z,17.60
2022-12-25T10:28:10.175Z,17.33
2022-12-25T10:29:19.589Z,12.80
2022-12-25T10:30:23.603Z,8.30
2022-12-25T10:31:34.668Z,5.63
2022-12-25T10:32:38.267Z,11.55
2022-12-25T10:33:42.879Z,12.13
2022-12-25T10:34:45.024Z,11.82
2022-12-25T10:35:49.690Z,10.93
2022-12-25T10:36:52.371Z,11.13
2022-12-25T10:38:01.397Z,14.30
2022-12-25T10:39:03.733Z,17.70
2022-12-25T10:40:31.101Z,13.95
2022-12-25T10:41:48.679Z,18.60
2022-12-25T10:42:58.453Z,9.88
2022-12-25T10:44:00.963Z,15.70
2022-12-25T10:45:09.244Z,12.90
2022-12-25T10:46:12.890Z,12.02
2022-12-25T10:47:27.325Z,12.75
2022-12-25T10:48:31.550Z,18.73
2022-12-25T10:49:38.296Z,11.43
2022-12-25T10:50:43.181Z,12.07
2022-12-25T10:51:47.862Z,10.95
2022-12-25T10:52:56.294Z,11.27
2022-12-25T10:54:01.863Z,14.07
2022-12-25T10:55:11.779Z,13.18
2022-12-25T10:56:20.978Z,10.43
2022-12-25T10:57:24.195Z,12.93
2022-12-25T10:58:29.174Z,19.10
2022-12-25T10:59:35.888Z,15.98
2022-12-25T11:00:40.507Z,18.98
2022-12-25T11:01:42.789Z,23.08
2022-12-25T11:02:50.347Z,16.60
2022-12-25T11:03:52.888Z,18.70
2022-12-25T11:05:05.172Z,20.02
2022-12-25T11:06:21.525Z,26.55
2022-12-25T11:07:29.024Z,14.57
2022-12-25T11:08:33.138Z,17.00
2022-12-25T11:09:38.726Z,20.25
2022-12-25T11:10:42.271Z,5.85
2022-12-25T11:11:50.827Z,15.02
2022-12-25T11:12:54.075Z,22.10
2022-12-25T11:14:01.536Z,24.25
2022-12-25T11:15:08.325Z,24.45
2022-12-25T11:16:17.068Z,41.83
2022-12-25T11:17:23.031Z,30.38
2022-12-25T11:18:32.190Z,331.35
2022-12-25T11:19:34.547Z,448.85
2022-12-25T11:20:45.374Z,352.17
2022-12-25T11:21:52.144Z,47.30
2022-12-25T11:22:56.651Z,105.93
2022-12-25T11:24:00.492Z,29.38
2022-12-25T11:25:15.461Z,20.80
2022-12-25T11:26:18.535Z,18.83
2022-12-25T11:27:28.648Z,16.20
2022-12-25T11:28:32.958Z,20.27
2022-12-25T11:29:44.575Z,12.95
2022-12-25T11:31:56.046Z,17.60
2022-12-25T11:33:01.320Z,22.10
2022-12-25T11:34:13.386Z,16.73
2022-12-25T11:35:18.188Z,16.00
2022-12-25T11:36:29.453Z,15.45
2022-12-25T11:37:37.654Z,7.10
2022-12-25T11:38:42.162Z,7.35
2022-12-25T11:39:44.361Z,6.03
2022-12-25T11:40:52.679Z,5.03
2022-12-25T11:41:59.534Z,5.30
2022-12-25T11:43:11.931Z,6.30
2022-12-25T11:44:26.767Z,5.95
2022-12-25T11:45:36.047Z,3.00
2022-12-25T11:46:42.464Z,3.85
2022-12-25T11:47:50.083Z,3.08
2022-12-25T11:48:56.365Z,2.95
2022-12-25T11:50:06.241Z,3.90
2022-12-25T11:51:10.087Z,5.93
2022-12-25T11:52:16.322Z,4.97
2022-12-25T11:53:25.448Z,5.30
2022-12-25T11:54:32.726Z,13.07
2022-12-25T11:55:42.547Z,22.40
2022-12-25T11:56:44.587Z,18.88
2022-12-25T11:57:57.605Z,14.35
2022-12-25T11:59:03.968Z,17.80
2022-12-25T12:00:11.381Z,12.23
2022-12-25T12:01:19.502Z,8.40
2022-12-25T12:02:32.201Z,19.98
2022-12-25T12:03:37.877Z,13.07
2022-12-25T12:04:46.484Z,6.03
2022-12-25T12:05:56.043Z,12.25
2022-12-25T12:07:06.691Z,15.95
2022-12-25T12:08:10.595Z,14.63
2022-12-25T12:09:29.619Z,10.73
2022-12-25T12:10:57.036Z,12.80
2022-12-25T12:12:06.637Z,16.80
2022-12-25T12:13:29.995Z,17.88
2022-12-25T12:14:43.617Z,13.90
2022-12-25T12:15:50.539Z,15.40
2022-12-25T12:16:55.182Z,16.27
2022-12-25T12:18:08.887Z,19.80
2022-12-25T12:19:14.939Z,15.80
2022-12-25T12:20:29.145Z,6.97
2022-12-25T12:21:36.316Z,18.33
2022-12-25T12:22:39.045Z,17.25
2022-12-25T12:23:54.417Z,29.55
2022-12-25T12:25:03.446Z,16.83
2022-12-25T12:26:05.822Z,18.80
2022-12-25T12:27:25.001Z,25.15
2022-12-25T12:28:29.883Z,14.45
2022-12-25T12:29:42.338Z,14.93
2022-12-25T12:30:44.315Z,12.55
2022-12-25T12:31:53.187Z,15.38
2022-12-25T12:33:01.302Z,32.22
2022-12-25T12:34:03.523Z,19.83
2022-12-25T12:35:12.078Z,15.80
2022-12-25T12:36:15.021Z,14.32
2022-12-25T12:37:32.024Z,9.07
2022-12-25T12:38:35.471Z,9.65
2022-12-25T12:39:43.163Z,13.57
2022-12-25T12:40:54.634Z,13.25
2022-12-25T12:41:59.293Z,17.02
2022-12-25T12:43:02.443Z,24.10
2022-12-25T12:44:08.360Z,21.50
2022-12-25T12:45:16.696Z,23.80
2022-12-25T12:46:30.089Z,12.35
2022-12-25T12:47:39.059Z,11.00
2022-12-25T12:48:45.916Z,8.23
2022-12-25T12:49:57.919Z,12.00
2022-12-25T12:51:06.835Z,16.80
2022-12-25T12:52:33.871Z,21.98
2022-12-25T12:53:38.423Z,21.20
2022-12-25T12:54:57.619Z,15.02
2022-12-25T12:56:13.330Z,20.67
2022-12-25T12:57:27.019Z,19.17
2022-12-25T12:58:33.737Z,16.23
2022-12-25T12:59:43.671Z,14.23
2022-12-25T13:00:58.620Z,13.90
2022-12-25T13:02:15.561Z,17.17
2022-12-25T13:03:31.832Z,18.88
2022-12-25T13:04:54.148Z,13.43
2022-12-25T13:06:01.016Z,7.65
2022-12-25T13:07:13.812Z,15.70
2022-12-25T13:08:33.627Z,14.75
2022-12-25T13:09:55.094Z,23.40
2022-12-25T13:11:08.552Z,21.75
2022-12-25T13:12:15.626Z,24.27
2022-12-25T13:13:25.020Z,22.45
2022-12-25T13:14:27.573Z,17.95
2022-12-25T13:15:36.061Z,13.30
2022-12-25T13:16:41.977Z,9.00
2022-12-25T13:17:48.734Z,15.98
2022-12-25T13:18:53.157Z,13.10
2022-12-25T13:20:00.456Z,6.50
2022-12-25T13:21:05.352Z,28.73
2022-12-25T13:22:09.975Z,18.02
2022-12-25T13:23:23.549Z,17.75
2022-12-25T13:24:32.673Z,16.17
2022-12-25T13:25:34.676Z,14.38
2022-12-25T13:26:39.777Z,14.18
2022-12-25T13:27:41.774Z,17.20
2022-12-25T13:28:49.298Z,15.30
2022-12-25T13:29:51.422Z,14.85
2022-12-25T13:30:56.695Z,124.30
2022-12-25T13:32:00.652Z,22.52
2022-12-25T13:33:06.294Z,35.70
2022-12-25T13:34:25.186Z,18.10
2022-12-25T13:35:27.895Z,7.40
2022-12-25T13:36:37.795Z,12.27
2022-12-25T13:37:39.977Z,16.77
2022-12-25T13:38:48.760Z,11.55
2022-12-25T13:39:56.864Z,13.65
2022-12-25T13:41:16.991Z,14.70
2022-12-25T13:42:24.161Z,11.23
2022-12-25T13:43:26.811Z,14.60
2022-12-25T13:44:34.179Z,14.52
2022-12-25T13:45:36.508Z,14.55
2022-12-25T13:46:41.267Z,16.80
2022-12-25T13:47:53.085Z,8.23
2022-12-25T13:48:59.320Z,20.42
2022-12-25T13:50:18.347Z,16.50
2022-12-25T13:51:20.867Z,11.98
2022-12-25T13:52:35.188Z,14.02
2022-12-25T13:53:37.095Z,9.88
2022-12-25T13:54:41.843Z,11.50
2022-12-25T13:55:52.530Z,13.98
2022-12-25T13:56:58.210Z,15.18
2022-12-25T13:58:03.657Z,10.80
2022-12-25T13:59:08.245Z,16.90
2022-12-25T14:00:22.536Z,9.38
2022-12-25T14:01:24.684Z,22.70
2022-12-25T14:02:34.319Z,15.15
2022-12-25T14:03:40.862Z,14.43
2022-12-25T14:04:47.700Z,20.27
2022-12-25T14:05:57.113Z,14.45
2022-12-25T14:07:12.183Z,13.82
2022-12-25T14:08:16.947Z,30.23
2022-12-25T14:09:22.493Z,18.75
2022-12-25T14:10:27.509Z,132.38
2022-12-25T14:11:35.554Z,37.53
2022-12-25T14:12:37.500Z,16.65
2022-12-25T14:13:45.603Z,16.52
2022-12-25T14:14:49.579Z,15.10
2022-12-25T14:15:58.142Z,17.95
2022-12-25T14:17:00.378Z,15.13
2022-12-25T14:18:05.523Z,18.60
2022-12-25T14:19:24.052Z,17.70
2022-12-25T14:20:31.599Z,24.77
2022-12-25T14:21:38.435Z,16.73
2022-12-25T14:22:43.162Z,18.23
2022-12-25T14:23:47.235Z,11.38
2022-12-25T14:24:52.256Z,11.68
2022-12-25T14:25:54.329Z,11.77
2022-12-25T14:27:06.862Z,4.68
2022-12-25T14:28:18.256Z,13.88
2022-12-25T14:29:28.137Z,12.98
2022-12-25T14:30:33.193Z,14.18
2022-12-25T14:31:38.538Z,12.88
2022-12-25T14:32:47.480Z,12.27
2022-12-25T14:33:50.647Z,11.63
2022-12-25T14:34:59.212Z,15.70
2022-12-25T14:36:01.349Z,13.52
2022-12-25T14:37:06.964Z,9.30
2022-12-25T14:38:17.670Z,17.35
2022-12-25T14:39:40.708Z,17.23